createdAt,value
2019-02-27T00:00:24.910Z,5.05
2019-02-27T00:01:24.824Z,5.10
2019-02-27T00:02:25.491Z,5.08
2019-02-27T00:03:28.794Z,5.15
2019-02-27T00:04:24.753Z,5.15
2019-02-27T00:05:24.839Z,5.11
2019-02-27T00:06:24.804Z,5.14
2019-02-27T00:07:24.761Z,5.18
2019-02-27T00:08:27.042Z,5.23
2019-02-27T00:09:24.787Z,5.28
2019-02-27T00:10:24.654Z,5.17
2019-02-27T00:11:24.675Z,5.20
2019-02-27T00:12:24.599Z,5.21
2019-02-27T00:13:25.421Z,5.21
2019-02-27T00:14:24.680Z,5.18
2019-02-27T00:15:24.595Z,5.29
2019-02-27T00:16:24.617Z,5.14
2019-02-27T00:17:24.580Z,5.25
2019-02-27T00:18:24.548Z,5.18
2019-02-27T00:19:24.513Z,5.18
2019-02-27T00:20:24.514Z,5.21
2019-02-27T00:23:45.335Z,5.12
2019-02-27T00:24:43.529Z,5.14
2019-02-27T00:25:44.500Z,5.14
2019-02-27T00:26:43.592Z,5.15
2019-02-27T00:27:48.679Z,5.14
2019-02-27T00:28:43.574Z,5.21
2019-02-27T00:29:46.460Z,5.17
2019-02-27T00:30:43.554Z,5.18
2019-02-27T00:31:46.072Z,5.11
2019-02-27T00:32:43.379Z,5.21
2019-02-27T00:33:43.684Z,5.21
2019-02-27T00:34:43.544Z,5.23
2019-02-27T00:35:44.516Z,5.26
2019-02-27T00:36:45.168Z,5.23
2019-02-27T00:37:43.275Z,5.18
2019-02-27T00:38:43.423Z,5.21
2019-02-27T00:39:43.343Z,5.21
2019-02-27T00:40:43.306Z,5.21
2019-02-27T00:41:46.006Z,5.28
2019-02-27T00:42:43.236Z,5.23
2019-02-27T00:43:43.238Z,5.28
2019-02-27T00:44:44.994Z,5.28
2019-02-27T00:45:43.238Z,5.21
2019-02-27T00:46:44.035Z,5.32
2019-02-27T00:47:43.324Z,5.30
2019-02-27T00:48:54.031Z,5.26
2019-02-27T00:49:43.385Z,5.30
2019-02-27T00:50:43.913Z,5.30
2019-02-27T00:51:44.892Z,5.30
2019-02-27T00:52:43.215Z,5.25
2019-02-27T00:53:43.993Z,5.18
2019-02-27T00:54:43.178Z,5.32
2019-02-27T00:55:43.021Z,5.26
2019-02-27T00:56:45.063Z,5.23
2019-02-27T00:57:42.914Z,5.26
2019-02-27T00:58:43.310Z,5.23
2019-02-27T00:59:43.004Z,5.26
2019-02-27T01:00:43.043Z,5.25
2019-02-27T01:01:47.214Z,5.21
2019-02-27T01:02:42.976Z,5.23
2019-02-27T01:03:42.904Z,5.23
2019-02-27T01:04:42.941Z,5.21
2019-02-27T01:05:43.340Z,5.23
2019-02-27T01:06:45.009Z,5.18
2019-02-27T01:07:42.863Z,5.28
2019-02-27T01:08:42.882Z,5.29
2019-02-27T01:09:44.517Z,5.23
2019-02-27T01:10:45.258Z,5.28
2019-02-27T01:11:42.712Z,5.20
2019-02-27T01:12:42.864Z,5.17
2019-02-27T01:13:42.638Z,5.23
2019-02-27T01:16:04.256Z,5.26
2019-02-27T01:17:03.508Z,5.25
2019-02-27T01:18:58.013Z,5.20
2019-02-27T01:19:56.472Z,5.20
2019-02-27T01:20:56.428Z,5.20
2019-02-27T01:21:56.406Z,5.29
2019-02-27T01:22:58.068Z,5.26
2019-02-27T01:23:58.408Z,5.20
2019-02-27T01:24:56.296Z,5.25
2019-02-27T01:25:57.161Z,5.21
2019-02-27T01:26:58.239Z,5.21
2019-02-27T01:27:58.106Z,5.12
2019-02-27T01:28:56.261Z,5.14
2019-02-27T01:29:56.239Z,5.18
2019-02-27T01:30:56.312Z,5.23
2019-02-27T01:31:57.631Z,5.25
2019-02-27T01:32:56.293Z,5.18
2019-02-27T01:33:58.079Z,5.23
2019-02-27T01:34:56.295Z,5.20
2019-02-27T01:35:56.244Z,5.23
2019-02-27T01:36:58.075Z,5.21
2019-02-27T01:37:58.999Z,5.20
2019-02-27T01:38:56.220Z,5.25
2019-02-27T01:39:56.862Z,5.21
2019-02-27T01:40:56.214Z,5.28
2019-02-27T01:41:57.981Z,5.20
2019-02-27T01:42:57.591Z,5.25
2019-02-27T01:43:56.294Z,5.29
2019-02-27T01:44:56.186Z,5.26
2019-02-27T01:45:56.031Z,5.36
2019-02-27T01:46:56.163Z,5.32
2019-02-27T01:47:56.102Z,5.36
2019-02-27T01:48:56.361Z,5.26
2019-02-27T01:49:56.023Z,5.29
2019-02-27T01:50:57.647Z,5.41
2019-02-27T01:51:55.984Z,5.35
2019-02-27T01:52:56.717Z,5.38
2019-02-27T01:53:55.859Z,5.35
2019-02-27T01:54:56.005Z,5.36
2019-02-27T01:55:56.399Z,5.38
2019-02-27T01:56:55.806Z,5.39
2019-02-27T01:57:55.846Z,5.33
2019-02-27T01:58:56.761Z,5.33
2019-02-27T01:59:55.764Z,5.39
2019-02-27T02:00:56.849Z,5.47
2019-02-27T02:01:55.979Z,5.46
2019-02-27T02:02:55.784Z,5.51
2019-02-27T02:03:55.696Z,5.56
2019-02-27T02:04:56.820Z,5.54
2019-02-27T02:05:58.779Z,5.57
2019-02-27T02:06:55.669Z,5.46
2019-02-27T02:07:55.650Z,5.57
2019-02-27T02:08:55.487Z,5.53
2019-02-27T02:09:55.839Z,5.47
2019-02-27T02:10:55.578Z,5.48
2019-02-27T02:11:55.553Z,5.50
2019-02-27T02:12:55.507Z,5.57
2019-02-27T02:13:55.456Z,5.61
2019-02-27T02:14:55.724Z,5.56
2019-02-27T02:15:55.558Z,5.56
2019-02-27T02:16:57.166Z,5.56
2019-02-27T02:17:55.348Z,5.54
2019-02-27T02:18:55.513Z,5.51
2019-02-27T02:19:55.435Z,5.56
2019-02-27T02:20:55.359Z,5.62
2019-02-27T02:21:55.474Z,5.62
2019-02-27T02:22:55.387Z,5.54
2019-02-27T02:23:56.245Z,5.62
2019-02-27T02:24:56.085Z,5.64
2019-02-27T02:25:55.314Z,5.56
2019-02-27T02:26:57.233Z,5.65
2019-02-27T02:27:55.245Z,5.54
2019-02-27T02:28:56.119Z,5.44
2019-02-27T02:29:55.319Z,5.50
2019-02-27T02:30:55.281Z,5.57
2019-02-27T02:31:56.149Z,5.56
2019-02-27T02:32:55.075Z,5.56
2019-02-27T02:33:55.165Z,5.59
2019-02-27T02:34:58.137Z,5.59
2019-02-27T02:36:24.976Z,5.65
2019-02-27T02:37:01.228Z,5.54
2019-02-27T02:37:55.017Z,5.59
2019-02-27T02:38:55.174Z,5.64
2019-02-27T02:39:56.889Z,5.64
2019-02-27T02:40:55.550Z,5.68
2019-02-27T02:41:54.931Z,5.65
2019-02-27T02:42:54.927Z,5.65
2019-02-27T02:43:54.886Z,5.72
2019-02-27T02:44:57.679Z,5.68
2019-02-27T02:45:55.009Z,5.71
2019-02-27T02:46:54.995Z,5.75
2019-02-27T02:47:56.024Z,5.71
2019-02-27T02:48:54.755Z,5.72
2019-02-27T02:49:54.972Z,5.79
2019-02-27T02:50:55.090Z,5.69
2019-02-27T02:51:54.843Z,5.71
2019-02-27T02:52:54.807Z,5.66
2019-02-27T02:54:00.693Z,5.65
2019-02-27T02:54:54.765Z,5.68
2019-02-27T02:55:54.862Z,5.72
2019-02-27T02:57:00.121Z,5.66
2019-02-27T02:57:54.808Z,5.79
2019-02-27T02:58:54.677Z,5.86
2019-02-27T03:00:54.786Z,5.84
2019-02-27T03:02:05.758Z,5.76
2019-02-27T03:03:00.258Z,5.83
2019-02-27T03:03:55.175Z,5.91
2019-02-27T03:04:54.660Z,5.80
2019-02-27T03:05:58.599Z,5.87
2019-02-27T03:06:54.460Z,5.90
2019-02-27T03:07:55.100Z,5.90
2019-02-27T03:08:55.252Z,5.89
2019-02-27T03:09:57.074Z,5.86
2019-02-27T03:10:56.108Z,5.83
2019-02-27T03:11:55.648Z,5.83
2019-02-27T03:12:54.797Z,5.87
2019-02-27T03:13:54.601Z,5.82
2019-02-27T03:14:54.641Z,5.79
2019-02-27T03:15:54.643Z,5.84
2019-02-27T03:16:56.139Z,5.83
2019-02-27T03:17:55.219Z,5.84
2019-02-27T03:19:05.109Z,5.83
2019-02-27T03:19:56.667Z,5.83
2019-02-27T03:22:03.089Z,5.84
2019-02-27T03:22:54.306Z,5.82
2019-02-27T03:23:55.434Z,5.76
2019-02-27T03:24:54.515Z,5.80
2019-02-27T03:25:54.341Z,5.84
2019-02-27T03:26:54.232Z,5.84
2019-02-27T03:27:54.467Z,5.84
2019-02-27T03:28:54.350Z,5.84
2019-02-27T03:29:54.191Z,5.84
2019-02-27T03:30:54.154Z,5.83
2019-02-27T03:31:59.955Z,5.86
2019-02-27T03:32:54.048Z,5.89
2019-02-27T03:34:05.009Z,5.83
2019-02-27T03:35:08.744Z,5.91
2019-02-27T03:35:54.061Z,5.83
2019-02-27T03:36:54.648Z,5.87
2019-02-27T03:37:54.034Z,5.87
2019-02-27T03:38:55.850Z,5.90
2019-02-27T03:39:54.057Z,5.90
2019-02-27T03:40:53.950Z,5.93
2019-02-27T03:41:58.518Z,5.83
2019-02-27T03:42:54.729Z,5.91
2019-02-27T03:43:53.913Z,5.93
2019-02-27T03:44:57.194Z,5.93
2019-02-27T03:45:54.624Z,5.98
2019-02-27T03:46:53.993Z,5.99
2019-02-27T03:47:54.730Z,5.97
2019-02-27T03:48:55.689Z,5.90
2019-02-27T03:49:54.573Z,5.93
2019-02-27T03:50:54.600Z,5.89
2019-02-27T03:51:59.676Z,5.86
2019-02-27T03:52:53.747Z,5.87
2019-02-27T03:53:54.690Z,5.90
2019-02-27T03:54:58.141Z,5.94
2019-02-27T03:55:58.648Z,5.97
2019-02-27T03:56:53.830Z,5.98
2019-02-27T03:58:04.945Z,5.87
2019-02-27T03:58:53.611Z,5.97
2019-02-27T03:59:56.286Z,5.98
2019-02-27T04:00:54.062Z,5.94
2019-02-27T04:01:53.598Z,5.99
2019-02-27T04:02:53.659Z,5.99
2019-02-27T04:03:56.180Z,6.01
2019-02-27T04:04:53.775Z,5.93
2019-02-27T04:05:53.567Z,5.93
2019-02-27T04:06:56.262Z,5.99
2019-02-27T04:07:53.724Z,6.02
2019-02-27T04:08:53.617Z,5.93
2019-02-27T04:09:55.407Z,6.07
2019-02-27T04:10:53.350Z,6.02
2019-02-27T04:11:53.413Z,6.02
2019-02-27T04:12:53.382Z,6.04
2019-02-27T04:13:54.212Z,6.04
2019-02-27T04:14:53.481Z,6.02
2019-02-27T04:15:54.364Z,6.01
2019-02-27T04:16:53.280Z,5.91
2019-02-27T04:17:53.277Z,5.98
2019-02-27T04:18:53.303Z,5.97
2019-02-27T04:19:54.095Z,5.99
2019-02-27T04:20:53.896Z,6.01
2019-02-27T04:21:53.249Z,5.98
2019-02-27T04:22:53.343Z,5.94
2019-02-27T04:23:53.226Z,6.08
2019-02-27T04:24:56.787Z,6.04
2019-02-27T04:25:53.196Z,6.01
2019-02-27T04:26:53.195Z,6.12
2019-02-27T04:27:55.474Z,6.02
2019-02-27T04:28:53.015Z,6.09
2019-02-27T04:29:52.991Z,6.07
2019-02-27T04:30:52.979Z,5.98
2019-02-27T04:31:52.985Z,6.04
2019-02-27T04:32:53.024Z,6.01
2019-02-27T04:33:53.023Z,6.05
2019-02-27T04:34:55.731Z,6.08
2019-02-27T04:35:53.662Z,6.02
2019-02-27T04:36:52.881Z,6.17
2019-02-27T04:38:52.866Z,6.16
2019-02-27T04:39:52.917Z,6.26
2019-02-27T04:40:53.017Z,6.20
2019-02-27T04:41:52.811Z,6.27
2019-02-27T04:42:52.860Z,6.33
2019-02-27T04:43:52.996Z,6.30
2019-02-27T04:44:52.904Z,6.28
2019-02-27T04:45:53.874Z,6.24
2019-02-27T04:46:54.865Z,6.28
2019-02-27T04:47:52.789Z,6.28
2019-02-27T04:48:52.840Z,6.27
2019-02-27T04:49:52.714Z,6.22
2019-02-27T04:50:52.640Z,6.31
2019-02-27T04:51:52.925Z,6.26
2019-02-27T04:52:52.735Z,6.28
2019-02-27T04:53:55.696Z,6.27
2019-02-27T04:54:54.135Z,6.33
2019-02-27T04:55:52.891Z,6.31
2019-02-27T04:56:55.042Z,6.27
2019-02-27T04:57:54.105Z,6.28
2019-02-27T04:58:55.263Z,6.26
2019-02-27T04:59:55.177Z,6.24
2019-02-27T05:00:52.546Z,6.30
2019-02-27T05:01:52.644Z,6.24
2019-02-27T05:02:53.403Z,6.17
2019-02-27T05:03:53.190Z,6.30
2019-02-27T05:04:52.629Z,6.26
2019-02-27T05:05:52.596Z,6.14
2019-02-27T05:06:52.440Z,6.24
2019-02-27T05:07:54.280Z,6.12
2019-02-27T05:08:52.581Z,6.27
2019-02-27T05:09:54.098Z,6.33
2019-02-27T05:12:13.520Z,6.19
2019-02-27T05:13:13.406Z,6.11
2019-02-27T05:14:17.408Z,6.20
2019-02-27T05:15:12.699Z,6.09
2019-02-27T05:16:14.115Z,6.12
2019-02-27T05:17:12.741Z,6.11
2019-02-27T05:18:12.727Z,6.16
2019-02-27T05:19:12.557Z,6.11
2019-02-27T05:20:12.928Z,6.08
2019-02-27T05:21:12.613Z,6.07
2019-02-27T05:22:12.606Z,6.14
2019-02-27T05:23:13.682Z,6.12
2019-02-27T05:24:14.348Z,6.19
2019-02-27T05:25:14.445Z,6.12
2019-02-27T05:26:12.695Z,6.27
2019-02-27T05:27:12.625Z,6.11
2019-02-27T05:28:12.656Z,6.16
2019-02-27T05:29:12.504Z,6.30
2019-02-27T05:30:12.870Z,6.20
2019-02-27T05:31:13.585Z,6.33
2019-02-27T05:32:12.596Z,6.26
2019-02-27T05:33:12.555Z,6.33
2019-02-27T05:34:13.504Z,6.31
2019-02-27T05:35:12.640Z,6.26
2019-02-27T05:36:12.489Z,6.28
2019-02-27T05:37:12.247Z,6.26
2019-02-27T05:38:12.846Z,6.30
2019-02-27T05:39:14.897Z,6.35
2019-02-27T05:40:12.932Z,6.33
2019-02-27T05:41:13.881Z,6.38
2019-02-27T05:42:19.114Z,6.48
2019-02-27T05:43:13.848Z,6.44
2019-02-27T05:44:12.378Z,6.51
2019-02-27T05:45:12.186Z,6.60
2019-02-27T05:46:15.010Z,6.52
2019-02-27T05:47:16.753Z,6.67
2019-02-27T05:48:12.274Z,6.63
2019-02-27T05:49:12.317Z,6.70
2019-02-27T05:50:12.296Z,6.64
2019-02-27T05:51:13.968Z,6.79
2019-02-27T05:52:14.434Z,6.74
2019-02-27T05:53:12.145Z,6.85
2019-02-27T05:54:12.094Z,6.85
2019-02-27T05:55:12.043Z,6.87
2019-02-27T05:56:16.335Z,6.89
2019-02-27T05:57:12.052Z,6.79
2019-02-27T05:58:14.959Z,6.95
2019-02-27T05:59:12.163Z,6.92
2019-02-27T06:01:12.861Z,6.96
2019-02-27T06:02:11.921Z,7.02
2019-02-27T06:03:11.908Z,6.97
2019-02-27T06:04:11.967Z,7.07
2019-02-27T06:05:11.855Z,7.03
2019-02-27T06:06:12.448Z,7.10
2019-02-27T06:07:12.008Z,7.10
2019-02-27T06:08:11.967Z,7.07
2019-02-27T06:09:11.901Z,7.17
2019-02-27T06:10:11.793Z,7.15
2019-02-27T06:11:11.809Z,7.15
2019-02-27T06:12:11.994Z,7.18
2019-02-27T06:13:14.747Z,7.15
2019-02-27T06:14:14.358Z,7.02
2019-02-27T06:15:11.697Z,7.11
2019-02-27T06:16:11.748Z,7.14
2019-02-27T06:17:12.872Z,7.11
2019-02-27T06:18:11.713Z,7.10
2019-02-27T06:19:11.727Z,7.03
2019-02-27T06:20:14.402Z,6.93
2019-02-27T06:21:13.453Z,6.95
2019-02-27T06:22:12.317Z,6.96
2019-02-27T06:23:11.821Z,7.00
2019-02-27T06:24:12.454Z,6.97
2019-02-27T06:25:11.530Z,6.95
2019-02-27T06:26:11.618Z,6.96
2019-02-27T06:27:11.592Z,6.93
2019-02-27T06:28:11.499Z,6.96
2019-02-27T06:30:12.396Z,6.88
2019-02-27T06:31:13.361Z,6.82
2019-02-27T06:32:12.347Z,6.96
2019-02-27T06:33:11.883Z,6.88
2019-02-27T06:34:11.900Z,6.95
2019-02-27T06:35:12.039Z,7.00
2019-02-27T06:36:13.053Z,6.93
2019-02-27T06:37:15.340Z,6.96
2019-02-27T06:38:11.369Z,6.96
2019-02-27T06:39:11.353Z,6.97
2019-02-27T06:40:11.215Z,6.95
2019-02-27T06:41:17.945Z,7.02
2019-02-27T06:42:14.005Z,7.11
2019-02-27T06:43:11.860Z,7.03
2019-02-27T06:44:11.362Z,6.97
2019-02-27T06:45:12.651Z,7.05
2019-02-27T06:46:13.463Z,7.06
2019-02-27T06:47:14.207Z,7.00
2019-02-27T06:48:15.009Z,7.10
2019-02-27T06:49:12.052Z,7.07
2019-02-27T06:50:16.109Z,7.06
2019-02-27T06:51:11.037Z,7.07
2019-02-27T06:52:11.062Z,6.95
2019-02-27T06:53:15.625Z,7.00
2019-02-27T06:54:11.705Z,7.05
2019-02-27T06:55:13.050Z,7.05
2019-02-27T06:56:11.601Z,7.05
2019-02-27T06:57:12.619Z,7.07
2019-02-27T06:58:14.597Z,7.17
2019-02-27T06:59:12.124Z,7.13
2019-02-27T07:00:11.675Z,7.07
2019-02-27T07:02:10.923Z,7.07
2019-02-27T07:03:12.190Z,6.99
2019-02-27T07:04:11.526Z,7.13
2019-02-27T07:05:14.941Z,7.03
2019-02-27T07:06:12.708Z,7.11
2019-02-27T07:07:11.055Z,7.11
2019-02-27T07:08:11.453Z,7.05
2019-02-27T07:09:11.623Z,7.05
2019-02-27T07:10:11.799Z,7.07
2019-02-27T07:11:16.051Z,7.14
2019-02-27T07:12:15.844Z,7.10
2019-02-27T07:13:14.942Z,7.06
2019-02-27T07:14:11.966Z,7.15
2019-02-27T07:15:12.794Z,7.21
2019-02-27T07:16:11.391Z,7.35
2019-02-27T07:17:13.548Z,7.33
2019-02-27T07:18:11.939Z,7.32
2019-02-27T07:19:15.701Z,7.32
2019-02-27T07:20:14.119Z,7.45
2019-02-27T07:22:13.804Z,7.32
2019-02-27T07:24:11.097Z,7.32
2019-02-27T07:25:11.396Z,7.38
2019-02-27T07:26:15.837Z,7.47
2019-02-27T07:27:11.450Z,7.48
2019-02-27T07:28:10.498Z,7.45
2019-02-27T07:29:21.005Z,7.50
2019-02-27T07:30:11.469Z,7.48
2019-02-27T07:31:12.438Z,7.48
2019-02-27T07:32:17.053Z,7.48
2019-02-27T07:33:10.989Z,7.48
2019-02-27T07:34:14.193Z,7.43
2019-02-27T07:35:17.340Z,7.48
2019-02-27T07:36:15.009Z,7.36
2019-02-27T07:38:11.330Z,7.42
2019-02-27T07:39:10.372Z,7.35
2019-02-27T07:40:10.412Z,7.42
2019-02-27T07:41:10.229Z,7.43
2019-02-27T07:42:12.196Z,7.43
2019-02-27T07:44:10.890Z,7.47
2019-02-27T07:45:10.731Z,7.47
2019-02-27T07:46:11.366Z,7.53
2019-02-27T07:47:11.083Z,7.57
2019-02-27T07:48:10.216Z,7.60
2019-02-27T07:50:10.952Z,7.72
2019-02-27T07:51:10.918Z,7.70
2019-02-27T07:52:10.819Z,7.61
2019-02-27T07:53:10.151Z,7.72
2019-02-27T07:54:10.298Z,7.67
2019-02-27T07:55:20.738Z,7.72
2019-02-27T07:56:10.149Z,7.61
2019-02-27T07:57:10.662Z,7.61
2019-02-27T07:58:12.978Z,7.69
2019-02-27T07:59:11.981Z,7.70
2019-02-27T08:00:14.981Z,7.63
2019-02-27T08:01:10.068Z,7.63
2019-02-27T08:02:10.028Z,7.75
2019-02-27T08:03:12.929Z,7.73
2019-02-27T08:04:10.875Z,7.80
2019-02-27T08:05:09.781Z,7.76
2019-02-27T08:06:10.675Z,7.70
2019-02-27T08:07:09.979Z,7.72
2019-02-27T08:08:10.696Z,7.76
2019-02-27T08:09:16.380Z,7.73
2019-02-27T08:10:11.418Z,7.70
2019-02-27T08:11:13.658Z,7.79
2019-02-27T08:12:09.981Z,7.73
2019-02-27T08:13:10.905Z,7.83
2019-02-27T08:14:14.267Z,7.76
2019-02-27T08:15:10.851Z,7.82
2019-02-27T08:16:10.564Z,7.80
2019-02-27T08:17:17.701Z,7.88
2019-02-27T08:18:29.535Z,7.97
2019-02-27T08:19:11.615Z,7.93
2019-02-27T08:20:10.343Z,7.97
2019-02-27T08:21:09.773Z,7.98
2019-02-27T08:22:09.731Z,8.09
2019-02-27T08:23:09.770Z,8.10
2019-02-27T08:24:09.965Z,8.12
2019-02-27T08:25:09.519Z,8.10
2019-02-27T08:26:10.663Z,8.15
2019-02-27T08:27:10.346Z,8.10
2019-02-27T08:28:09.474Z,8.20
2019-02-27T08:29:10.168Z,8.31
2019-02-27T08:30:11.442Z,8.41
2019-02-27T08:31:10.153Z,8.42
2019-02-27T08:32:09.532Z,8.38
2019-02-27T08:33:09.944Z,8.53
2019-02-27T08:34:09.596Z,8.51
2019-02-27T08:35:14.280Z,8.58
2019-02-27T08:36:16.049Z,8.70
2019-02-27T08:37:11.022Z,8.79
2019-02-27T08:38:11.080Z,8.84
2019-02-27T08:39:09.307Z,8.97
2019-02-27T08:40:09.382Z,9.11
2019-02-27T08:41:10.061Z,9.08
2019-02-27T08:42:09.702Z,9.14
2019-02-27T08:43:10.988Z,9.23
2019-02-27T08:44:12.330Z,9.21
2019-02-27T08:45:18.827Z,9.26
2019-02-27T08:46:16.538Z,9.37
2019-02-27T08:47:30.438Z,9.39
2019-02-27T08:48:22.001Z,9.28
2019-02-27T08:49:09.956Z,9.31
2019-02-27T08:50:10.428Z,9.34
2019-02-27T08:51:11.481Z,9.32
2019-02-27T08:52:13.139Z,9.26
2019-02-27T08:53:12.638Z,9.26
2019-02-27T08:56:12.189Z,9.26
2019-02-27T08:58:09.076Z,9.44
2019-02-27T08:59:09.051Z,9.44
2019-02-27T09:00:14.196Z,9.40
2019-02-27T09:01:08.918Z,9.41
2019-02-27T09:02:21.800Z,9.39
2019-02-27T09:03:23.419Z,9.47
2019-02-27T09:04:11.294Z,9.56
2019-02-27T09:05:09.177Z,9.44
2019-02-27T09:06:09.335Z,9.54
2019-02-27T09:07:11.549Z,9.46
2019-02-27T09:08:12.366Z,9.41
2019-02-27T09:09:08.980Z,9.41
2019-02-27T09:12:13.406Z,9.48
2019-02-27T09:13:13.431Z,9.55
2019-02-27T09:14:08.873Z,9.47
2019-02-27T09:15:09.305Z,9.48
2019-02-27T09:16:09.739Z,9.55
2019-02-27T09:17:08.799Z,9.51
2019-02-27T09:18:08.800Z,9.50
2019-02-27T09:19:10.140Z,9.51
2019-02-27T09:20:08.766Z,9.55
2019-02-27T09:21:08.627Z,9.55
2019-02-27T09:22:11.850Z,9.54
2019-02-27T09:24:09.209Z,9.59
2019-02-27T09:25:13.303Z,9.56
2019-02-27T09:26:09.643Z,9.51
2019-02-27T09:27:08.520Z,9.64
2019-02-27T09:28:09.301Z,9.66
2019-02-27T09:29:19.474Z,9.65
2019-02-27T09:30:11.597Z,9.64
2019-02-27T09:31:14.941Z,9.65
2019-02-27T09:32:30.595Z,9.62
2019-02-27T09:33:11.944Z,9.65
2019-02-27T09:34:09.039Z,9.62
2019-02-27T09:35:09.007Z,9.74
2019-02-27T09:36:10.335Z,9.68
2019-02-27T09:37:08.551Z,9.69
2019-02-27T09:38:08.750Z,9.76
2019-02-27T09:39:10.011Z,9.83
2019-02-27T09:40:08.587Z,9.83
2019-02-27T09:42:29.254Z,9.83
2019-02-27T09:43:29.373Z,9.86
2019-02-27T09:45:22.271Z,9.98
2019-02-27T09:46:22.069Z,10.01
2019-02-27T09:47:23.188Z,10.13
2019-02-27T09:49:22.000Z,10.17
2019-02-27T09:50:22.107Z,10.15
2019-02-27T09:51:22.185Z,10.09
2019-02-27T09:52:27.855Z,10.25
2019-02-27T09:53:22.198Z,10.30
2019-02-27T09:54:28.617Z,10.44
2019-02-27T09:55:22.265Z,10.54
2019-02-27T09:56:36.784Z,10.56
2019-02-27T09:57:24.891Z,10.71
2019-02-27T09:58:22.710Z,10.69
2019-02-27T09:59:22.720Z,10.79
2019-02-27T10:00:28.727Z,10.78
2019-02-27T10:01:43.412Z,10.92
2019-02-27T10:02:22.680Z,10.90
2019-02-27T10:03:23.241Z,10.93
2019-02-27T10:04:29.739Z,10.97
2019-02-27T10:05:26.123Z,10.79
2019-02-27T10:06:23.909Z,10.93
2019-02-27T10:07:24.217Z,10.86
2019-02-27T10:08:30.827Z,10.93
2019-02-27T10:09:21.994Z,10.90
2019-02-27T10:10:23.728Z,10.93
2019-02-27T10:11:22.338Z,11.02
2019-02-27T10:12:27.074Z,11.02
2019-02-27T10:13:22.522Z,11.12
2019-02-27T10:14:25.336Z,11.25
2019-02-27T10:17:21.737Z,11.25
2019-02-27T10:18:22.173Z,11.18
2019-02-27T10:19:22.751Z,11.18
2019-02-27T10:20:29.314Z,11.33
2019-02-27T10:21:23.324Z,11.35
2019-02-27T10:22:24.538Z,11.32
2019-02-27T10:23:30.554Z,11.35
2019-02-27T10:24:21.557Z,11.29
2019-02-27T10:25:22.530Z,11.35
2019-02-27T10:26:25.702Z,11.32
2019-02-27T10:27:21.590Z,11.23
2019-02-27T10:28:21.427Z,11.33
2019-02-27T10:29:25.313Z,11.32
2019-02-27T10:30:27.398Z,11.30
2019-02-27T10:31:25.959Z,11.30
2019-02-27T10:32:22.657Z,11.44
2019-02-27T10:33:21.721Z,11.48
2019-02-27T10:34:24.023Z,11.54
2019-02-27T10:35:22.919Z,11.60
2019-02-27T10:36:39.045Z,11.62
2019-02-27T10:37:22.528Z,11.70
2019-02-27T10:38:27.452Z,11.81
2019-02-27T10:39:37.152Z,11.87
2019-02-27T10:40:21.775Z,12.04
2019-02-27T10:41:42.520Z,12.07
2019-02-27T10:42:22.363Z,12.15
2019-02-27T10:43:21.585Z,12.17
2019-02-27T10:44:22.168Z,12.20
2019-02-27T10:45:21.455Z,12.21
2019-02-27T10:46:23.466Z,12.20
2019-02-27T10:47:23.315Z,12.27
2019-02-27T10:48:21.219Z,12.36
2019-02-27T10:49:27.524Z,12.45
2019-02-27T10:50:27.041Z,12.47
2019-02-27T10:51:24.737Z,12.62
2019-02-27T10:52:24.316Z,12.85
2019-02-27T10:53:27.201Z,12.82
2019-02-27T10:54:21.880Z,13.03
2019-02-27T10:55:22.182Z,13.19
2019-02-27T10:56:36.085Z,13.38
2019-02-27T10:57:21.197Z,13.53
2019-02-27T10:58:21.675Z,13.85
2019-02-27T10:59:22.201Z,13.90
2019-02-27T11:00:24.903Z,14.04
2019-02-27T11:01:21.164Z,14.17
2019-02-27T11:02:23.470Z,14.35
2019-02-27T11:03:23.695Z,14.59
2019-02-27T11:04:21.099Z,14.72
2019-02-27T11:05:21.840Z,14.81
2019-02-27T11:06:42.055Z,14.85
2019-02-27T11:07:42.304Z,14.92
2019-02-27T11:08:23.820Z,14.92
2019-02-27T11:09:23.879Z,15.04
2019-02-27T11:10:23.979Z,15.15
2019-02-27T11:11:22.431Z,15.19
2019-02-27T11:12:21.317Z,15.27
2019-02-27T11:13:21.813Z,15.21
2019-02-27T11:14:23.735Z,15.14
2019-02-27T11:15:20.938Z,14.99
2019-02-27T11:16:21.423Z,14.79
2019-02-27T11:17:22.031Z,14.69
2019-02-27T11:18:36.687Z,14.45
2019-02-27T11:19:23.090Z,14.41
2019-02-27T11:21:48.321Z,14.32
2019-02-27T11:22:44.359Z,14.30
2019-02-27T11:23:41.990Z,14.32
2019-02-27T11:24:41.973Z,14.41
2019-02-27T11:25:41.831Z,14.41
2019-02-27T11:26:41.906Z,14.51
2019-02-27T11:29:42.140Z,14.45
2019-02-27T11:30:42.233Z,14.47
2019-02-27T11:31:42.291Z,14.44
2019-02-27T11:33:04.434Z,14.41
2019-02-27T11:35:14.397Z,14.48
2019-02-27T11:36:19.400Z,14.59
2019-02-27T11:37:16.409Z,14.72
2019-02-27T11:38:35.484Z,14.66
2019-02-27T11:39:14.360Z,14.81
2019-02-27T11:40:14.545Z,14.96
2019-02-27T11:41:18.893Z,14.84
2019-02-27T11:42:14.833Z,14.88
2019-02-27T11:43:14.620Z,14.86
2019-02-27T11:44:15.954Z,14.85
2019-02-27T11:45:14.962Z,14.84
2019-02-27T11:46:17.978Z,14.73
2019-02-27T11:47:16.813Z,14.81
2019-02-27T11:48:14.141Z,14.78
2019-02-27T11:49:18.786Z,14.77
2019-02-27T11:50:17.994Z,14.68
2019-02-27T11:51:14.290Z,14.58
2019-02-27T11:52:18.125Z,14.50
2019-02-27T11:54:35.057Z,14.33
2019-02-27T11:55:34.567Z,14.32
2019-02-27T11:57:30.538Z,14.48
2019-02-27T11:58:29.469Z,14.47
2019-02-27T12:00:28.757Z,14.41
2019-02-27T12:01:25.989Z,14.47
2019-02-27T12:02:28.726Z,14.62
2019-02-27T12:03:24.040Z,14.69
2019-02-27T12:04:21.727Z,14.70
2019-02-27T12:05:21.202Z,14.72
2019-02-27T12:06:21.522Z,14.73
2019-02-27T12:07:23.014Z,14.72
2019-02-27T12:08:25.882Z,14.81
2019-02-27T12:09:21.041Z,15.14
2019-02-27T12:10:23.721Z,15.11
2019-02-27T12:12:23.401Z,14.81
2019-02-27T12:13:21.743Z,14.73
2019-02-27T12:14:21.006Z,14.48
2019-02-27T12:15:21.945Z,14.48
2019-02-27T12:16:27.905Z,14.35
2019-02-27T12:17:23.243Z,14.22
2019-02-27T12:18:21.174Z,14.26
2019-02-27T12:19:21.159Z,14.22
2019-02-27T12:20:44.007Z,14.23
2019-02-27T12:21:25.460Z,14.26
2019-02-27T12:22:21.194Z,14.26
2019-02-27T12:24:29.342Z,14.47
2019-02-27T12:26:14.666Z,14.44
2019-02-27T12:27:23.227Z,14.47
2019-02-27T12:28:17.347Z,14.51
2019-02-27T12:30:24.380Z,14.45
2019-02-27T12:31:18.409Z,14.48
2019-02-27T12:32:19.226Z,14.59
2019-02-27T12:33:14.298Z,14.60
2019-02-27T12:34:13.793Z,14.77
2019-02-27T12:35:15.796Z,14.85
2019-02-27T12:36:18.668Z,15.04
2019-02-27T12:37:27.703Z,15.19
2019-02-27T12:38:14.357Z,15.36
2019-02-27T12:39:16.068Z,15.62
2019-02-27T12:40:15.403Z,16.02
2019-02-27T12:41:15.941Z,16.24
2019-02-27T12:42:36.908Z,16.75
2019-02-27T12:44:18.698Z,17.39
2019-02-27T12:45:35.263Z,17.79
2019-02-27T12:47:37.712Z,17.83
2019-02-27T12:48:35.170Z,17.92
2019-02-27T12:49:34.531Z,18.08
2019-02-27T12:50:35.141Z,18.08
2019-02-27T12:51:38.006Z,18.00
2019-02-27T12:52:35.431Z,18.10
2019-02-27T12:53:35.221Z,18.10
2019-02-27T12:54:36.345Z,17.97
2019-02-27T12:55:36.341Z,17.94
2019-02-27T12:56:36.304Z,17.76
2019-02-27T12:57:36.327Z,17.57
2019-02-27T12:58:34.489Z,17.45
2019-02-27T12:59:34.511Z,17.44
2019-02-27T13:00:34.438Z,17.56
2019-02-27T13:01:36.067Z,17.78
2019-02-27T13:02:44.152Z,17.97
2019-02-27T13:03:34.565Z,18.11
2019-02-27T13:04:34.496Z,18.08
2019-02-27T13:05:58.222Z,18.05
2019-02-27T13:06:37.300Z,17.98
2019-02-27T13:07:35.268Z,17.87
2019-02-27T13:08:34.356Z,17.72
2019-02-27T13:09:35.151Z,17.48
2019-02-27T13:10:34.450Z,17.31
2019-02-27T13:11:34.366Z,17.09
2019-02-27T13:12:35.116Z,16.87
2019-02-27T13:13:34.316Z,16.76
2019-02-27T13:14:34.500Z,16.60
2019-02-27T13:16:04.196Z,16.43
2019-02-27T13:16:34.520Z,16.31
2019-02-27T13:17:35.166Z,16.17
2019-02-27T13:18:37.083Z,16.23
2019-02-27T13:19:34.264Z,16.15
2019-02-27T13:20:34.458Z,16.09
2019-02-27T13:21:34.211Z,16.02
2019-02-27T13:22:45.302Z,16.02
2019-02-27T13:23:36.419Z,16.01
2019-02-27T13:24:35.862Z,15.72
2019-02-27T13:25:34.221Z,15.68
2019-02-27T13:26:34.721Z,15.47
2019-02-27T13:27:34.363Z,15.42
2019-02-27T13:28:34.287Z,15.27
2019-02-27T13:29:44.615Z,15.27
2019-02-27T13:31:34.162Z,14.92
2019-02-27T13:32:34.154Z,14.78
2019-02-27T13:33:35.458Z,14.47
2019-02-27T13:34:34.232Z,14.26
2019-02-27T13:35:34.039Z,14.23
2019-02-27T13:36:35.380Z,14.15
2019-02-27T13:37:35.660Z,14.10
2019-02-27T13:38:36.941Z,13.99
2019-02-27T13:39:34.104Z,13.93
2019-02-27T13:40:35.790Z,13.78
2019-02-27T13:41:33.929Z,13.83
2019-02-27T13:42:34.220Z,13.67
2019-02-27T13:43:35.039Z,13.56
2019-02-27T13:44:35.191Z,13.53
2019-02-27T13:45:34.026Z,13.42
2019-02-27T13:46:33.924Z,13.38
2019-02-27T13:47:34.909Z,13.31
2019-02-27T13:51:40.358Z,13.04
2019-02-27T13:52:39.144Z,13.00
2019-02-27T13:53:39.297Z,12.87
2019-02-27T13:54:44.046Z,13.05
2019-02-27T13:55:39.165Z,13.01
2019-02-27T13:56:40.178Z,12.97